createdAt,value
2023-04-06T00:01:01.341Z,5.30
2023-04-06T00:03:28.349Z,5.30
2023-04-06T00:05:55.476Z,5.30
2023-04-06T00:08:24.482Z,5.30
2023-04-06T00:10:51.374Z,5.20
2023-04-06T00:13:18.272Z,5.20
2023-04-06T00:15:45.201Z,5.20
2023-04-06T00:18:12.204Z,5.20
2023-04-06T00:20:39.341Z,5.20
2023-04-06T00:23:06.332Z,5.20
2023-04-06T00:25:33.187Z,5.10
2023-04-06T00:28:00.223Z,5.10
2023-04-06T00:30:27.096Z,5.20
2023-04-06T00:32:54.020Z,5.10
2023-04-06T00:35:21.390Z,5.20
2023-04-06T00:37:49.161Z,5.20
2023-04-06T00:40:16.844Z,5.20
2023-04-06T00:42:43.793Z,5.20
2023-04-06T00:45:11.782Z,5.20
2023-04-06T00:47:38.860Z,5.20
2023-04-06T00:50:06.630Z,5.10
2023-04-06T00:52:35.498Z,5.10
2023-04-06T00:55:03.769Z,5.10
2023-04-06T00:57:31.925Z,5.10
2023-04-06T00:59:58.883Z,5.10
2023-04-06T01:02:26.788Z,5.10
2023-04-06T01:04:55.390Z,5.10
2023-04-06T01:07:22.485Z,5.00
2023-04-06T01:09:49.390Z,5.10
2023-04-06T01:12:16.324Z,5.10
2023-04-06T01:14:43.262Z,5.10
2023-04-06T01:17:10.259Z,5.10
2023-04-06T01:19:38.012Z,5.00
2023-04-06T01:22:04.947Z,5.00
2023-04-06T01:24:31.889Z,5.00
2023-04-06T01:26:58.775Z,5.00
2023-04-06T01:29:26.106Z,5.00
2023-04-06T01:31:53.013Z,5.00
2023-04-06T01:34:19.896Z,5.00
2023-04-06T01:36:46.760Z,5.00
2023-04-06T01:39:13.674Z,5.00
2023-04-06T01:41:40.798Z,5.00
2023-04-06T01:44:07.715Z,5.00
2023-04-06T01:46:34.593Z,5.00
2023-04-06T01:49:01.435Z,5.00
2023-04-06T01:51:28.389Z,5.00
2023-04-06T01:53:56.169Z,5.10
2023-04-06T01:56:23.098Z,5.10
2023-04-06T01:58:50.032Z,5.00
2023-04-06T02:01:17.061Z,5.00
2023-04-06T02:03:44.047Z,5.00
2023-04-06T02:06:11.056Z,5.00
2023-04-06T02:08:38.069Z,5.00
2023-04-06T02:11:05.237Z,4.90
2023-04-06T02:13:32.149Z,4.90
2023-04-06T02:15:59.200Z,4.90
2023-04-06T02:18:26.180Z,4.90
2023-04-06T02:20:53.038Z,4.90
2023-04-06T02:23:19.965Z,4.90
2023-04-06T02:25:46.955Z,4.90
2023-04-06T02:28:13.807Z,4.90
2023-04-06T02:30:40.890Z,4.90
2023-04-06T02:33:07.842Z,4.80
2023-04-06T02:35:34.766Z,4.80
2023-04-06T02:38:01.697Z,4.80
2023-04-06T02:40:28.579Z,4.80
2023-04-06T02:42:55.452Z,4.80
2023-04-06T02:45:22.396Z,4.80
2023-04-06T02:47:49.305Z,4.80
2023-04-06T02:50:16.502Z,4.80
2023-04-06T02:52:43.545Z,4.80
2023-04-06T02:55:10.497Z,4.90
2023-04-06T02:57:37.364Z,4.90
2023-04-06T03:00:04.932Z,4.80
2023-04-06T03:02:31.909Z,4.80
2023-04-06T03:04:58.892Z,4.80
2023-04-06T03:07:25.735Z,4.70
2023-04-06T03:09:52.580Z,4.70
2023-04-06T03:12:19.455Z,4.60
2023-04-06T03:14:46.500Z,4.60
2023-04-06T03:17:13.560Z,4.60
2023-04-06T03:19:40.572Z,4.60
2023-04-06T03:22:07.418Z,4.50
2023-04-06T03:24:34.443Z,4.50
2023-04-06T03:27:01.425Z,4.50
2023-04-06T03:29:28.396Z,4.60
2023-04-06T03:31:55.528Z,4.60
2023-04-06T03:34:22.389Z,4.60
2023-04-06T03:36:59.530Z,4.60
2023-04-06T03:39:33.953Z,4.60
2023-04-06T03:42:00.834Z,4.60
2023-04-06T03:44:27.655Z,4.60
2023-04-06T03:46:54.653Z,4.60
2023-04-06T03:49:21.668Z,4.50
2023-04-06T03:51:48.611Z,4.50
2023-04-06T03:54:15.812Z,4.50
2023-04-06T03:56:42.889Z,4.50
2023-04-06T03:59:10.159Z,4.40
2023-04-06T04:01:37.379Z,4.30
2023-04-06T04:04:04.340Z,4.30
2023-04-06T04:06:31.220Z,4.30
2023-04-06T04:08:58.120Z,4.30
2023-04-06T04:11:24.995Z,4.30
2023-04-06T04:13:51.838Z,4.20
2023-04-06T04:16:18.700Z,4.20
2023-04-06T04:18:46.430Z,4.20
2023-04-06T04:21:13.534Z,4.20
2023-04-06T04:23:40.435Z,4.20
2023-04-06T04:26:07.302Z,4.20
2023-04-06T04:28:34.171Z,4.20
2023-04-06T04:31:01.416Z,4.10
2023-04-06T04:33:28.385Z,4.10
2023-04-06T04:35:55.508Z,4.10
2023-04-06T04:38:22.388Z,4.10
2023-04-06T04:40:49.281Z,4.10
2023-04-06T04:43:16.144Z,4.00
2023-04-06T04:45:43.032Z,4.00
2023-04-06T04:48:10.353Z,4.00
2023-04-06T04:50:37.287Z,4.00
2023-04-06T04:53:06.946Z,4.00
2023-04-06T04:55:33.894Z,4.00
2023-04-06T04:58:00.766Z,4.00
2023-04-06T05:00:28.875Z,4.10
2023-04-06T05:02:55.843Z,4.10
2023-04-06T05:05:22.822Z,4.20
2023-04-06T05:07:49.717Z,4.20
2023-04-06T05:10:16.851Z,4.20
2023-04-06T05:12:43.872Z,4.20
2023-04-06T05:15:11.314Z,4.20
2023-04-06T05:17:38.511Z,4.20
2023-04-06T05:20:06.972Z,4.30
2023-04-06T05:22:33.853Z,4.30
2023-04-06T05:25:00.976Z,4.30
2023-04-06T05:27:27.846Z,4.30
2023-04-06T05:29:57.378Z,4.30
2023-04-06T05:32:25.750Z,4.40
2023-04-06T05:34:52.861Z,4.40
2023-04-06T05:37:19.864Z,4.40
2023-04-06T05:39:46.763Z,4.50
2023-04-06T05:42:13.690Z,4.40
2023-04-06T05:44:41.104Z,4.50
2023-04-06T05:47:08.011Z,4.50
2023-04-06T05:49:35.742Z,4.50
2023-04-06T05:52:03.005Z,4.50
2023-04-06T05:54:29.883Z,4.60
2023-04-06T05:56:56.832Z,4.60
2023-04-06T05:59:24.852Z,4.70
2023-04-06T06:01:52.314Z,4.90
2023-04-06T06:04:19.266Z,4.80
2023-04-06T06:06:46.187Z,4.90
2023-04-06T06:09:13.125Z,4.90
2023-04-06T06:11:40.087Z,5.00
2023-04-06T06:14:06.986Z,5.10
2023-04-06T06:16:34.757Z,5.20
2023-04-06T06:19:01.874Z,5.30
2023-04-06T06:21:28.770Z,5.40
2023-04-06T06:23:55.860Z,5.40
2023-04-06T06:26:22.878Z,5.40
2023-04-06T06:28:49.865Z,5.40
2023-04-06T06:31:17.367Z,5.40
2023-04-06T06:33:44.434Z,5.60
2023-04-06T06:36:11.386Z,5.70
2023-04-06T06:38:39.207Z,5.70
2023-04-06T06:41:06.562Z,5.80
2023-04-06T06:43:33.444Z,5.80
2023-04-06T06:46:00.589Z,5.90
2023-04-06T06:48:27.752Z,6.00
2023-04-06T06:50:54.834Z,6.30
2023-04-06T06:53:22.212Z,6.50
2023-04-06T06:55:51.760Z,6.80
2023-04-06T06:58:21.910Z,7.00
2023-04-06T07:00:49.038Z,7.10
2023-04-06T07:03:15.910Z,7.20
2023-04-06T07:05:54.033Z,7.40
2023-04-06T07:08:23.411Z,7.60
2023-04-06T07:10:59.219Z,7.70
2023-04-06T07:13:27.828Z,7.60
2023-04-06T07:15:54.836Z,7.50
2023-04-06T07:18:23.966Z,7.50
2023-04-06T07:20:50.898Z,7.40
2023-04-06T07:23:17.881Z,7.40
2023-04-06T07:25:44.789Z,7.60
2023-04-06T07:28:11.682Z,7.90
2023-04-06T07:30:39.561Z,8.20
2023-04-06T07:33:07.120Z,8.00
2023-04-06T07:35:36.004Z,7.90
2023-04-06T07:38:03.102Z,7.90
2023-04-06T07:40:30.046Z,7.80
2023-04-06T07:42:58.114Z,7.80
2023-04-06T07:45:25.212Z,7.80
2023-04-06T07:47:52.336Z,8.00
2023-04-06T07:50:19.416Z,8.20
2023-04-06T07:52:46.388Z,8.30
2023-04-06T07:55:13.473Z,8.40
2023-04-06T07:57:40.521Z,8.60
2023-04-06T08:00:10.366Z,8.80
2023-04-06T08:02:37.427Z,8.80
2023-04-06T08:05:04.844Z,8.90
2023-04-06T08:07:31.909Z,9.00
2023-04-06T08:09:58.870Z,8.60
2023-04-06T08:12:25.832Z,8.80
2023-04-06T08:14:52.792Z,8.90
2023-04-06T08:17:19.948Z,9.20
2023-04-06T08:19:46.898Z,9.50
2023-04-06T08:22:13.813Z,9.60
2023-04-06T08:24:40.964Z,9.50
2023-04-06T08:27:08.682Z,9.60
2023-04-06T08:29:35.917Z,9.60
2023-04-06T08:32:06.000Z,9.70
2023-04-06T08:34:34.463Z,10.00
2023-04-06T08:37:01.793Z,9.60
2023-04-06T08:39:31.654Z,9.80
2023-04-06T08:42:00.812Z,10.00
2023-04-06T08:44:28.211Z,10.30
2023-04-06T08:46:56.112Z,10.50
2023-04-06T08:49:23.811Z,10.40
2023-04-06T08:51:51.769Z,10.30
2023-04-06T08:54:19.054Z,9.90
2023-04-06T08:56:46.806Z,9.70
2023-04-06T08:59:14.743Z,9.60
2023-04-06T09:01:44.054Z,9.30
2023-04-06T09:04:13.560Z,8.90
2023-04-06T09:06:41.700Z,8.60
2023-04-06T09:09:09.540Z,8.60
2023-04-06T09:11:53.397Z,8.50
2023-04-06T09:14:38.078Z,8.40
2023-04-06T09:17:06.477Z,8.90
2023-04-06T09:19:33.717Z,9.10
2023-04-06T09:22:08.023Z,8.80
2023-04-06T09:25:01.512Z,8.60
2023-04-06T09:27:33.860Z,8.50
2023-04-06T09:30:19.414Z,8.40
2023-04-06T09:32:58.404Z,8.30
2023-04-06T09:35:27.787Z,8.30
2023-04-06T09:37:55.327Z,8.30
2023-04-06T09:40:24.385Z,8.20
2023-04-06T09:42:53.712Z,8.20
2023-04-06T09:45:21.926Z,8.20
2023-04-06T09:47:52.538Z,8.20
2023-04-06T09:50:20.908Z,8.10
2023-04-06T09:52:55.498Z,7.90
2023-04-06T09:55:35.052Z,8.00
2023-04-06T09:58:14.018Z,8.00
2023-04-06T10:01:13.539Z,7.80
2023-04-06T10:03:56.082Z,7.90
2023-04-06T10:06:28.261Z,7.80
2023-04-06T10:08:57.718Z,7.80
2023-04-06T10:11:25.601Z,7.90
2023-04-06T10:13:52.484Z,7.90
2023-04-06T10:16:20.048Z,7.90
2023-04-06T10:18:57.705Z,7.90
2023-04-06T10:21:28.348Z,8.10
2023-04-06T10:24:11.838Z,8.10
2023-04-06T10:26:39.222Z,8.20
2023-04-06T10:29:09.281Z,8.20
2023-04-06T10:31:44.580Z,8.30
2023-04-06T10:34:11.602Z,8.30
2023-04-06T10:36:38.999Z,8.20
2023-04-06T10:39:07.874Z,8.10
2023-04-06T10:41:45.754Z,8.00
2023-04-06T10:44:25.897Z,7.90
2023-04-06T10:47:04.100Z,8.00
2023-04-06T10:49:31.151Z,8.00
2023-04-06T10:51:58.631Z,8.00
2023-04-06T10:54:28.833Z,8.00
2023-04-06T10:56:57.440Z,8.10
2023-04-06T10:59:26.026Z,7.90
2023-04-06T11:01:54.132Z,8.00
2023-04-06T11:04:22.068Z,8.10
2023-04-06T11:06:50.880Z,8.20
2023-04-06T11:09:37.655Z,8.20
2023-04-06T11:12:05.342Z,8.10
2023-04-06T11:14:32.240Z,8.00
2023-04-06T11:16:59.311Z,8.20
2023-04-06T11:19:26.597Z,8.20
2023-04-06T11:21:53.800Z,8.10
2023-04-06T11:24:24.231Z,8.20
2023-04-06T11:26:54.927Z,8.30
2023-04-06T11:29:25.952Z,8.30
2023-04-06T11:31:58.761Z,8.10
2023-04-06T11:34:29.426Z,8.10
2023-04-06T11:37:03.402Z,8.20
2023-04-06T11:39:31.314Z,8.10
2023-04-06T11:42:05.564Z,8.10
2023-04-06T11:44:41.487Z,8.30
2023-04-06T11:47:11.112Z,8.30
2023-04-06T11:49:40.971Z,8.40
2023-04-06T11:52:28.678Z,8.30
2023-04-06T11:54:57.941Z,8.60
2023-04-06T11:57:26.434Z,8.80
2023-04-06T11:59:53.948Z,8.80
2023-04-06T12:02:21.107Z,8.70
2023-04-06T12:04:48.564Z,8.50
2023-04-06T12:07:15.764Z,8.60
2023-04-06T12:09:44.134Z,8.70
2023-04-06T12:12:11.135Z,8.60
2023-04-06T12:14:38.363Z,8.70
2023-04-06T12:17:05.434Z,8.50
2023-04-06T12:19:32.873Z,8.60
2023-04-06T12:22:00.047Z,8.50
2023-04-06T12:24:27.007Z,8.70
2023-04-06T12:27:06.506Z,8.60
2023-04-06T12:29:36.792Z,8.80
2023-04-06T12:32:03.805Z,8.70
2023-04-06T12:34:31.185Z,8.50
2023-04-06T12:36:58.451Z,8.30
2023-04-06T12:39:31.926Z,8.30
2023-04-06T12:41:58.905Z,8.20
2023-04-06T12:44:27.139Z,8.20
2023-04-06T12:46:54.339Z,8.30
2023-04-06T12:49:21.317Z,8.40
2023-04-06T12:51:48.366Z,8.40
2023-04-06T12:54:15.287Z,8.30
2023-04-06T12:56:42.202Z,8.60
2023-04-06T12:59:10.529Z,8.50
2023-04-06T13:01:38.283Z,8.70
2023-04-06T13:04:05.284Z,8.80
2023-04-06T13:06:32.341Z,8.70
2023-04-06T13:09:01.850Z,8.90
2023-04-06T13:11:29.360Z,8.90
2023-04-06T13:13:56.358Z,9.00
2023-04-06T13:16:23.564Z,9.00
2023-04-06T13:18:51.233Z,9.00
2023-04-06T13:21:18.479Z,8.90
2023-04-06T13:23:46.079Z,9.00
2023-04-06T13:26:14.638Z,9.10
2023-04-06T13:28:42.413Z,9.10
2023-04-06T13:31:10.733Z,9.00
2023-04-06T13:33:39.489Z,8.90
2023-04-06T13:36:08.931Z,8.90
2023-04-06T13:38:36.105Z,8.60
2023-04-06T13:41:03.212Z,8.50
2023-04-06T13:43:30.462Z,8.50
2023-04-06T13:46:00.976Z,8.60
2023-04-06T13:48:28.097Z,8.60
2023-04-06T13:50:55.409Z,8.50
2023-04-06T13:53:22.795Z,8.40
2023-04-06T13:55:56.811Z,8.40
2023-04-06T13:58:24.560Z,8.30
2023-04-06T14:00:52.015Z,8.30
2023-04-06T14:03:19.960Z,8.40
2023-04-06T14:05:47.426Z,8.60
2023-04-06T14:08:17.470Z,8.50
2023-04-06T14:10:44.385Z,8.40
2023-04-06T14:13:11.479Z,8.50
2023-04-06T14:15:38.641Z,8.40
2023-04-06T14:18:05.714Z,8.30
2023-04-06T14:20:36.101Z,8.30
2023-04-06T14:23:03.735Z,8.20
2023-04-06T14:25:35.643Z,8.20
2023-04-06T14:28:02.991Z,8.20
2023-04-06T14:30:31.992Z,8.20
2023-04-06T14:32:59.363Z,8.30
2023-04-06T14:35:29.292Z,8.20
2023-04-06T14:37:59.122Z,8.20
2023-04-06T14:40:26.595Z,8.10
2023-04-06T14:42:56.160Z,8.10
2023-04-06T14:45:23.631Z,8.00
2023-04-06T14:47:51.489Z,7.80
2023-04-06T14:50:18.409Z,7.80
2023-04-06T14:52:47.260Z,7.90
2023-04-06T14:55:15.072Z,8.00
2023-04-06T14:57:41.973Z,7.90
2023-04-06T15:00:10.576Z,7.80
2023-04-06T15:02:38.154Z,7.70
2023-04-06T15:05:06.422Z,7.50
2023-04-06T15:07:33.353Z,7.40
2023-04-06T15:10:00.244Z,7.30
2023-04-06T15:12:27.194Z,7.20
2023-04-06T15:14:54.092Z,7.00
2023-04-06T15:17:21.217Z,7.00
2023-04-06T15:19:48.267Z,7.00
2023-04-06T15:22:15.288Z,7.00
2023-04-06T15:24:42.238Z,7.00
2023-04-06T15:27:09.177Z,7.00
2023-04-06T15:29:36.550Z,7.00
2023-04-06T15:32:03.714Z,7.00
2023-04-06T15:34:33.598Z,7.00
2023-04-06T15:37:04.923Z,6.90
2023-04-06T15:39:33.321Z,6.90
2023-04-06T15:42:01.141Z,7.00
2023-04-06T15:44:28.209Z,6.90
2023-04-06T15:46:55.723Z,6.90
2023-04-06T15:49:23.077Z,6.90
2023-04-06T15:51:52.037Z,7.00
2023-04-06T15:54:21.145Z,7.00
2023-04-06T15:56:50.625Z,7.10
2023-04-06T15:59:17.695Z,7.00
2023-04-06T16:01:46.552Z,6.70
2023-04-06T16:04:14.803Z,6.80
2023-04-06T16:06:41.922Z,6.80
2023-04-06T16:09:08.878Z,6.80
2023-04-06T16:11:37.000Z,6.80
2023-04-06T16:14:04.331Z,6.60
2023-04-06T16:16:31.395Z,6.50
2023-04-06T16:18:58.346Z,6.50
2023-04-06T16:21:27.328Z,6.50
2023-04-06T16:23:54.358Z,6.40
2023-04-06T16:26:22.399Z,6.30
2023-04-06T16:28:51.338Z,6.10
2023-04-06T16:31:24.146Z,6.10
2023-04-06T16:33:54.435Z,5.90
2023-04-06T16:36:25.376Z,6.00
2023-04-06T16:38:53.538Z,5.90
2023-04-06T16:41:21.652Z,6.00
2023-04-06T16:43:49.442Z,6.00
2023-04-06T16:46:17.405Z,6.00
2023-04-06T16:48:44.613Z,5.90
2023-04-06T16:51:11.621Z,5.90
2023-04-06T16:53:39.169Z,5.80
2023-04-06T16:58:34.565Z,5.70
2023-04-06T17:01:01.874Z,5.60
2023-04-06T17:03:30.746Z,5.50
2023-04-06T17:05:57.918Z,5.50
2023-04-06T17:08:25.036Z,5.40
2023-04-06T17:11:02.703Z,5.60
2023-04-06T17:13:30.958Z,5.50
2023-04-06T17:15:57.892Z,5.60
2023-04-06T17:18:24.809Z,5.60
2023-04-06T17:20:51.718Z,5.50
2023-04-06T17:23:18.686Z,5.50
2023-04-06T17:25:45.605Z,5.60
2023-04-06T17:28:12.516Z,5.60
2023-04-06T17:30:40.929Z,5.70
2023-04-06T17:33:08.004Z,5.60
2023-04-06T17:35:36.405Z,5.50
2023-04-06T17:38:03.299Z,5.40
2023-04-06T17:40:30.357Z,5.40
2023-04-06T17:42:57.529Z,5.30
2023-04-06T17:45:24.410Z,5.30
2023-04-06T17:47:51.333Z,5.40
2023-04-06T17:50:18.546Z,5.40
2023-04-06T17:55:17.603Z,5.40
2023-04-06T17:57:46.152Z,5.50
2023-04-06T18:00:15.734Z,5.50
2023-04-06T18:02:43.383Z,5.50
2023-04-06T18:05:10.839Z,5.50
2023-04-06T18:07:37.861Z,5.50
2023-04-06T18:10:05.457Z,5.60
2023-04-06T18:12:34.877Z,5.60
2023-04-06T18:15:01.854Z,5.50
2023-04-06T18:17:28.843Z,5.50
2023-04-06T18:19:56.216Z,5.60
2023-04-06T18:22:23.349Z,5.50
2023-04-06T18:24:50.411Z,5.60
2023-04-06T18:27:19.722Z,5.50
2023-04-06T18:29:47.560Z,5.40
2023-04-06T18:32:18.514Z,5.50
2023-04-06T18:34:45.588Z,5.50
2023-04-06T18:37:13.362Z,5.50
2023-04-06T18:39:43.814Z,5.50
2023-04-06T18:42:11.131Z,5.30
2023-04-06T18:44:38.273Z,5.30
2023-04-06T18:47:05.678Z,5.30
2023-04-06T18:49:33.456Z,5.50
2023-04-06T18:52:01.654Z,5.40
2023-04-06T18:54:28.840Z,5.30
2023-04-06T18:56:56.884Z,5.40
2023-04-06T18:59:24.375Z,5.50
2023-04-06T19:01:54.084Z,5.40
2023-04-06T19:04:21.878Z,5.40
2023-04-06T19:06:49.005Z,5.50
2023-04-06T19:09:18.228Z,5.50
2023-04-06T19:11:45.164Z,5.50
2023-04-06T19:14:12.110Z,5.50
2023-04-06T19:16:42.579Z,5.40
2023-04-06T19:19:09.844Z,5.30
2023-04-06T19:21:37.399Z,5.40
2023-04-06T19:24:04.647Z,5.50
2023-04-06T19:26:32.765Z,5.40
2023-04-06T19:28:59.786Z,5.40
2023-04-06T19:31:28.066Z,5.40
2023-04-06T19:33:55.320Z,5.40
2023-04-06T19:36:22.406Z,5.20
2023-04-06T19:38:49.360Z,5.10
2023-04-06T19:41:16.225Z,5.10
2023-04-06T19:43:43.165Z,4.90
2023-04-06T19:46:11.046Z,4.90
2023-04-06T19:48:37.984Z,4.90
2023-04-06T19:51:04.949Z,5.00
2023-04-06T19:53:32.097Z,4.90
2023-04-06T19:55:59.064Z,4.80
2023-04-06T19:58:26.007Z,4.80
2023-04-06T20:00:52.891Z,4.80
2023-04-06T20:03:19.966Z,4.80
2023-04-06T20:05:47.068Z,4.70
2023-04-06T20:08:14.302Z,4.80
2023-04-06T20:10:41.262Z,4.80
2023-04-06T20:13:08.298Z,4.80
2023-04-06T20:15:35.511Z,4.80
2023-04-06T20:18:02.409Z,4.80
2023-04-06T20:20:29.652Z,4.80
2023-04-06T20:22:56.593Z,4.90
2023-04-06T20:25:23.636Z,4.90
2023-04-06T20:27:53.220Z,4.90
2023-04-06T20:30:20.190Z,5.00
2023-04-06T20:32:47.133Z,4.90
2023-04-06T20:35:14.072Z,4.80
2023-04-06T20:37:41.916Z,4.80
2023-04-06T20:40:10.088Z,4.90
2023-04-06T20:42:37.259Z,4.90
2023-04-06T20:45:05.503Z,4.90
2023-04-06T20:47:32.578Z,4.90
2023-04-06T20:50:00.497Z,4.80
2023-04-06T20:52:27.812Z,4.70
2023-04-06T20:54:55.056Z,4.80
2023-04-06T20:57:23.224Z,4.90
2023-04-06T20:59:50.728Z,4.90
2023-04-06T21:02:17.973Z,4.80
2023-04-06T21:04:45.520Z,4.80
2023-04-06T21:07:12.597Z,4.80
2023-04-06T21:09:41.331Z,4.90
2023-04-06T21:12:08.829Z,4.90
2023-04-06T21:14:36.654Z,4.90
2023-04-06T21:17:04.196Z,5.00
2023-04-06T21:19:31.216Z,5.00
2023-04-06T21:21:58.282Z,5.00
2023-04-06T21:24:25.944Z,5.10
2023-04-06T21:26:53.060Z,5.00
2023-04-06T21:29:20.314Z,5.00
2023-04-06T21:31:53.305Z,5.10
2023-04-06T21:34:20.593Z,5.10
2023-04-06T21:36:47.858Z,5.10
2023-04-06T21:39:14.798Z,5.20
2023-04-06T21:41:41.691Z,5.20
2023-04-06T21:44:08.647Z,5.10
2023-04-06T21:46:35.651Z,5.10
2023-04-06T21:49:02.591Z,5.20
2023-04-06T21:51:29.516Z,5.20
2023-04-06T21:53:56.541Z,5.20
2023-04-06T21:56:25.655Z,5.10
2023-04-06T21:58:53.667Z,5.10
2023-04-06T22:01:21.293Z,5.10
2023-04-06T22:03:48.818Z,5.10
2023-04-06T22:06:16.046Z,5.20
2023-04-06T22:08:47.614Z,5.10
2023-04-06T22:11:14.706Z,5.00
2023-04-06T22:13:41.635Z,5.00
2023-04-06T22:16:08.726Z,5.00
2023-04-06T22:18:38.674Z,5.10
2023-04-06T22:21:07.038Z,5.10
2023-04-06T22:23:42.199Z,5.10
2023-04-06T22:26:11.446Z,5.10
2023-04-06T22:28:38.606Z,5.10
2023-04-06T22:31:05.699Z,5.10
2023-04-06T22:33:32.643Z,5.10
2023-04-06T22:35:59.824Z,5.20
2023-04-06T22:38:27.414Z,5.20
2023-04-06T22:40:54.346Z,5.20
2023-04-06T22:43:21.244Z,5.20
2023-04-06T22:45:48.149Z,5.30
2023-04-06T22:48:15.684Z,5.30
2023-04-06T22:50:42.643Z,5.20
2023-04-06T22:53:09.504Z,5.30
2023-04-06T22:55:39.988Z,5.20
2023-04-06T22:58:07.262Z,5.20
2023-04-06T23:00:34.210Z,5.30
2023-04-06T23:03:01.687Z,5.30
2023-04-06T23:05:28.855Z,5.30
2023-04-06T23:07:55.748Z,5.30
2023-04-06T23:10:22.689Z,5.30
2023-04-06T23:12:49.621Z,5.40
2023-04-06T23:15:16.902Z,5.50
2023-04-06T23:17:43.896Z,5.40
2023-04-06T23:20:10.834Z,5.40
2023-04-06T23:22:38.492Z,5.40
2023-04-06T23:25:07.635Z,5.50
2023-04-06T23:27:34.506Z,5.40
2023-04-06T23:30:01.361Z,5.40
2023-04-06T23:32:28.299Z,5.50
2023-04-06T23:34:55.334Z,5.40
2023-04-06T23:37:22.226Z,5.50
2023-04-06T23:39:52.230Z,5.50
2023-04-06T23:42:19.252Z,5.50
2023-04-06T23:44:46.184Z,5.50
2023-04-06T23:47:13.057Z,5.40
2023-04-06T23:49:40.052Z,5.40
2023-04-06T23:52:07.124Z,5.40
2023-04-06T23:54:34.009Z,5.30
2023-04-06T23:57:01.369Z,5.40
2023-04-06T23:59:28.358Z,5.30
